sensor_id;sensor_type;location;lat;lon;timestamp;temperature;humidity
78516;SHT31;67815;51.990;5.688;2023-06-26T00:01:20;26.1;55.2
78516;SHT31;67815;51.990;5.688;2023-06-26T00:03:50;26.1;55.4
78516;SHT31;67815;51.990;5.688;2023-06-26T00:06:19;26.1;55.4
78516;SHT31;67815;51.990;5.688;2023-06-26T00:08:55;26.0;55.8
78516;SHT31;67815;51.990;5.688;2023-06-26T00:11:26;26.0;55.8
78516;SHT31;67815;51.990;5.688;2023-06-26T00:14:01;26.0;55.8
78516;SHT31;67815;51.990;5.688;2023-06-26T00:16:31;25.9;56.0
78516;SHT31;67815;51.990;5.688;2023-06-26T00:19:00;25.9;55.8
78516;SHT31;67815;51.990;5.688;2023-06-26T00:21:30;25.8;56.1
78516;SHT31;67815;51.990;5.688;2023-06-26T00:23:59;25.8;56.1
78516;SHT31;67815;51.990;5.688;2023-06-26T00:26:29;25.8;56.2
78516;SHT31;67815;51.990;5.688;2023-06-26T00:28:59;25.8;56.6
78516;SHT31;67815;51.990;5.688;2023-06-26T00:31:28;25.8;56.2
78516;SHT31;67815;51.990;5.688;2023-06-26T00:33:58;25.8;56.5
78516;SHT31;67815;51.990;5.688;2023-06-26T00:36:27;25.8;56.5
78516;SHT31;67815;51.990;5.688;2023-06-26T00:38:57;25.8;56.7
78516;SHT31;67815;51.990;5.688;2023-06-26T00:41:26;25.8;56.7
78516;SHT31;67815;51.990;5.688;2023-06-26T00:43:56;25.7;56.7
78516;SHT31;67815;51.990;5.688;2023-06-26T00:46:26;25.7;56.6
78516;SHT31;67815;51.990;5.688;2023-06-26T00:48:59;25.7;56.9
78516;SHT31;67815;51.990;5.688;2023-06-26T00:51:30;25.8;56.6
78516;SHT31;67815;51.990;5.688;2023-06-26T00:54:00;25.8;56.6
78516;SHT31;67815;51.990;5.688;2023-06-26T00:56:31;25.8;56.4
78516;SHT31;67815;51.990;5.688;2023-06-26T00:59:01;25.8;56.3
78516;SHT31;67815;51.990;5.688;2023-06-26T01:01:31;25.8;56.2
78516;SHT31;67815;51.990;5.688;2023-06-26T01:04:01;25.8;56.1
78516;SHT31;67815;51.990;5.688;2023-06-26T01:06:34;25.8;56.2
78516;SHT31;67815;51.990;5.688;2023-06-26T01:09:07;25.8;56.3
78516;SHT31;67815;51.990;5.688;2023-06-26T01:11:37;25.8;56.2
78516;SHT31;67815;51.990;5.688;2023-06-26T01:14:07;25.7;56.3
78516;SHT31;67815;51.990;5.688;2023-06-26T01:16:38;25.7;56.4
78516;SHT31;67815;51.990;5.688;2023-06-26T01:19:13;25.7;56.7
78516;SHT31;67815;51.990;5.688;2023-06-26T01:21:54;25.7;56.4
78516;SHT31;67815;51.990;5.688;2023-06-26T01:24:34;25.7;56.4
78516;SHT31;67815;51.990;5.688;2023-06-26T01:27:05;25.7;57.2
78516;SHT31;67815;51.990;5.688;2023-06-26T01:29:38;25.7;57.3
78516;SHT31;67815;51.990;5.688;2023-06-26T01:32:10;25.7;56.6
78516;SHT31;67815;51.990;5.688;2023-06-26T01:34:40;25.7;56.8
78516;SHT31;67815;51.990;5.688;2023-06-26T01:37:09;25.7;55.7
78516;SHT31;67815;51.990;5.688;2023-06-26T01:39:39;25.7;54.6
78516;SHT31;67815;51.990;5.688;2023-06-26T01:42:11;25.7;55.4
78516;SHT31;67815;51.990;5.688;2023-06-26T01:44:45;25.7;56.0
78516;SHT31;67815;51.990;5.688;2023-06-26T01:47:21;25.7;54.3
78516;SHT31;67815;51.990;5.688;2023-06-26T01:49:58;25.6;53.7
78516;SHT31;67815;51.990;5.688;2023-06-26T01:52:39;25.6;53.5
78516;SHT31;67815;51.990;5.688;2023-06-26T01:55:20;25.6;53.9
78516;SHT31;67815;51.990;5.688;2023-06-26T01:57:54;25.6;53.5
78516;SHT31;67815;51.990;5.688;2023-06-26T02:00:27;25.6;53.5
78516;SHT31;67815;51.990;5.688;2023-06-26T02:02:57;25.5;53.0
78516;SHT31;67815;51.990;5.688;2023-06-26T02:05:29;25.5;53.0
78516;SHT31;67815;51.990;5.688;2023-06-26T02:07:59;25.5;53.2
78516;SHT31;67815;51.990;5.688;2023-06-26T02:10:30;25.4;53.5
78516;SHT31;67815;51.990;5.688;2023-06-26T02:13:00;25.4;53.3
78516;SHT31;67815;51.990;5.688;2023-06-26T02:15:30;25.4;53.5
78516;SHT31;67815;51.990;5.688;2023-06-26T02:18:00;25.3;53.5
78516;SHT31;67815;51.990;5.688;2023-06-26T02:20:29;25.3;53.9
78516;SHT31;67815;51.990;5.688;2023-06-26T02:23:00;25.2;53.8
78516;SHT31;67815;51.990;5.688;2023-06-26T02:25:29;25.2;54.3
78516;SHT31;67815;51.990;5.688;2023-06-26T02:27:59;25.2;54.8
78516;SHT31;67815;51.990;5.688;2023-06-26T02:30:29;25.1;54.3
78516;SHT31;67815;51.990;5.688;2023-06-26T02:32:58;25.1;55.4
78516;SHT31;67815;51.990;5.688;2023-06-26T02:35:28;25.1;54.9
78516;SHT31;67815;51.990;5.688;2023-06-26T02:37:58;25.0;55.0
78516;SHT31;67815;51.990;5.688;2023-06-26T02:40:27;25.0;55.1
78516;SHT31;67815;51.990;5.688;2023-06-26T02:42:57;25.0;55.2
78516;SHT31;67815;51.990;5.688;2023-06-26T02:45:29;24.9;55.4
78516;SHT31;67815;51.990;5.688;2023-06-26T02:47:58;24.9;55.6
78516;SHT31;67815;51.990;5.688;2023-06-26T02:50:28;24.8;55.8
78516;SHT31;67815;51.990;5.688;2023-06-26T02:52:57;24.8;56.0
78516;SHT31;67815;51.990;5.688;2023-06-26T02:55:27;24.7;56.1
78516;SHT31;67815;51.990;5.688;2023-06-26T02:57:57;24.7;56.3
78516;SHT31;67815;51.990;5.688;2023-06-26T03:00:26;24.6;56.6
78516;SHT31;67815;51.990;5.688;2023-06-26T03:02:57;24.6;56.9
78516;SHT31;67815;51.990;5.688;2023-06-26T03:05:27;24.5;56.9
78516;SHT31;67815;51.990;5.688;2023-06-26T03:07:57;24.5;57.1
78516;SHT31;67815;51.990;5.688;2023-06-26T03:10:26;24.4;57.1
78516;SHT31;67815;51.990;5.688;2023-06-26T03:12:58;24.4;57.3
78516;SHT31;67815;51.990;5.688;2023-06-26T03:15:28;24.4;57.7
78516;SHT31;67815;51.990;5.688;2023-06-26T03:17:57;24.3;57.7
78516;SHT31;67815;51.990;5.688;2023-06-26T03:20:27;24.3;58.0
78516;SHT31;67815;51.990;5.688;2023-06-26T03:22:57;24.2;58.1
78516;SHT31;67815;51.990;5.688;2023-06-26T03:25:26;24.2;58.1
78516;SHT31;67815;51.990;5.688;2023-06-26T03:27:56;24.2;58.6
78516;SHT31;67815;51.990;5.688;2023-06-26T03:30:25;24.1;58.5
78516;SHT31;67815;51.990;5.688;2023-06-26T03:32:55;24.1;58.7
78516;SHT31;67815;51.990;5.688;2023-06-26T03:35:25;24.1;59.1
78516;SHT31;67815;51.990;5.688;2023-06-26T03:37:55;24.0;59.0
78516;SHT31;67815;51.990;5.688;2023-06-26T03:40:24;24.0;59.3
78516;SHT31;67815;51.990;5.688;2023-06-26T03:42:54;24.0;59.5
78516;SHT31;67815;51.990;5.688;2023-06-26T03:45:24;24.0;59.6
78516;SHT31;67815;51.990;5.688;2023-06-26T03:47:55;23.9;59.8
78516;SHT31;67815;51.990;5.688;2023-06-26T03:50:25;23.9;60.0
78516;SHT31;67815;51.990;5.688;2023-06-26T03:52:54;23.9;60.0
78516;SHT31;67815;51.990;5.688;2023-06-26T03:55:26;23.9;60.5
78516;SHT31;67815;51.990;5.688;2023-06-26T03:57:55;23.9;60.5
78516;SHT31;67815;51.990;5.688;2023-06-26T04:00:25;23.8;60.5
78516;SHT31;67815;51.990;5.688;2023-06-26T04:02:55;23.8;60.7
78516;SHT31;67815;51.990;5.688;2023-06-26T04:05:27;23.8;60.7
78516;SHT31;67815;51.990;5.688;2023-06-26T04:07:57;23.8;60.9
78516;SHT31;67815;51.990;5.688;2023-06-26T04:10:26;23.8;61.2
78516;SHT31;67815;51.990;5.688;2023-06-26T04:12:56;23.8;61.1
78516;SHT31;67815;51.990;5.688;2023-06-26T04:15:25;23.7;61.2
78516;SHT31;67815;51.990;5.688;2023-06-26T04:17:55;23.7;61.5
78516;SHT31;67815;51.990;5.688;2023-06-26T04:20:25;23.7;61.8
78516;SHT31;67815;51.990;5.688;2023-06-26T04:22:54;23.7;61.6
78516;SHT31;67815;51.990;5.688;2023-06-26T04:25:24;23.7;62.0
78516;SHT31;67815;51.990;5.688;2023-06-26T04:27:56;23.7;62.0
78516;SHT31;67815;51.990;5.688;2023-06-26T04:30:26;23.6;62.1
78516;SHT31;67815;51.990;5.688;2023-06-26T04:32:59;23.6;62.0
78516;SHT31;67815;51.990;5.688;2023-06-26T04:35:29;23.6;62.2
78516;SHT31;67815;51.990;5.688;2023-06-26T04:37:58;23.6;62.1
78516;SHT31;67815;51.990;5.688;2023-06-26T04:40:31;23.6;62.1
78516;SHT31;67815;51.990;5.688;2023-06-26T04:43:00;23.6;62.1
78516;SHT31;67815;51.990;5.688;2023-06-26T04:45:30;23.6;62.1
78516;SHT31;67815;51.990;5.688;2023-06-26T04:48:00;23.6;62.2
78516;SHT31;67815;51.990;5.688;2023-06-26T04:50:30;23.6;62.7
78516;SHT31;67815;51.990;5.688;2023-06-26T04:53:01;23.6;62.5
78516;SHT31;67815;51.990;5.688;2023-06-26T04:55:31;23.5;62.4
78516;SHT31;67815;51.990;5.688;2023-06-26T04:58:00;23.5;62.5
78516;SHT31;67815;51.990;5.688;2023-06-26T05:00:30;23.5;62.6
78516;SHT31;67815;51.990;5.688;2023-06-26T05:03:03;23.5;62.7
78516;SHT31;67815;51.990;5.688;2023-06-26T05:05:32;23.5;62.9
78516;SHT31;67815;51.990;5.688;2023-06-26T05:08:16;23.5;63.0
78516;SHT31;67815;51.990;5.688;2023-06-26T05:10:46;23.5;63.0
78516;SHT31;67815;51.990;5.688;2023-06-26T05:13:16;23.5;62.8
78516;SHT31;67815;51.990;5.688;2023-06-26T05:15:47;23.5;62.3
78516;SHT31;67815;51.990;5.688;2023-06-26T05:18:16;23.5;62.2
78516;SHT31;67815;51.990;5.688;2023-06-26T05:20:47;23.5;62.7
78516;SHT31;67815;51.990;5.688;2023-06-26T05:23:17;23.5;62.4
78516;SHT31;67815;51.990;5.688;2023-06-26T05:25:49;23.5;61.6
78516;SHT31;67815;51.990;5.688;2023-06-26T05:28:21;23.5;61.4
78516;SHT31;67815;51.990;5.688;2023-06-26T05:30:53;23.5;61.0
78516;SHT31;67815;51.990;5.688;2023-06-26T05:33:25;23.5;60.6
78516;SHT31;67815;51.990;5.688;2023-06-26T05:35:56;23.5;60.0
78516;SHT31;67815;51.990;5.688;2023-06-26T05:38:27;23.5;59.2
78516;SHT31;67815;51.990;5.688;2023-06-26T05:40:58;23.5;59.8
78516;SHT31;67815;51.990;5.688;2023-06-26T05:43:28;23.5;59.8
78516;SHT31;67815;51.990;5.688;2023-06-26T05:45:58;23.4;59.9
78516;SHT31;67815;51.990;5.688;2023-06-26T05:48:28;23.4;59.3
78516;SHT31;67815;51.990;5.688;2023-06-26T05:50:58;23.4;58.5
78516;SHT31;67815;51.990;5.688;2023-06-26T05:53:29;23.4;58.8
78516;SHT31;67815;51.990;5.688;2023-06-26T05:56:00;23.4;59.4
78516;SHT31;67815;51.990;5.688;2023-06-26T05:58:31;23.4;57.0
78516;SHT31;67815;51.990;5.688;2023-06-26T06:01:02;23.4;57.8
78516;SHT31;67815;51.990;5.688;2023-06-26T06:03:31;23.4;57.7
78516;SHT31;67815;51.990;5.688;2023-06-26T06:06:01;23.4;58.0
78516;SHT31;67815;51.990;5.688;2023-06-26T06:08:31;23.4;56.5
78516;SHT31;67815;51.990;5.688;2023-06-26T06:11:01;23.4;57.6
78516;SHT31;67815;51.990;5.688;2023-06-26T06:13:33;23.4;56.4
78516;SHT31;67815;51.990;5.688;2023-06-26T06:16:03;23.5;55.9
78516;SHT31;67815;51.990;5.688;2023-06-26T06:18:33;23.5;56.0
78516;SHT31;67815;51.990;5.688;2023-06-26T06:21:03;23.5;55.4
78516;SHT31;67815;51.990;5.688;2023-06-26T06:23:32;23.5;55.9
78516;SHT31;67815;51.990;5.688;2023-06-26T06:26:03;23.5;55.7
78516;SHT31;67815;51.990;5.688;2023-06-26T06:28:32;23.5;56.1
78516;SHT31;67815;51.990;5.688;2023-06-26T06:31:02;23.5;55.5
78516;SHT31;67815;51.990;5.688;2023-06-26T06:33:31;23.5;55.5
78516;SHT31;67815;51.990;5.688;2023-06-26T06:36:03;23.5;56.4
78516;SHT31;67815;51.990;5.688;2023-06-26T06:38:33;23.5;55.9
78516;SHT31;67815;51.990;5.688;2023-06-26T06:41:03;23.5;55.2
78516;SHT31;67815;51.990;5.688;2023-06-26T06:43:32;23.5;54.8
78516;SHT31;67815;51.990;5.688;2023-06-26T06:46:02;23.5;54.7
78516;SHT31;67815;51.990;5.688;2023-06-26T06:48:32;23.5;54.6
78516;SHT31;67815;51.990;5.688;2023-06-26T06:51:02;23.5;54.7
78516;SHT31;67815;51.990;5.688;2023-06-26T06:53:31;23.5;55.6
78516;SHT31;67815;51.990;5.688;2023-06-26T06:56:01;23.5;55.4
78516;SHT31;67815;51.990;5.688;2023-06-26T06:58:30;23.6;55.8
78516;SHT31;67815;51.990;5.688;2023-06-26T07:01:02;23.6;55.2
78516;SHT31;67815;51.990;5.688;2023-06-26T07:03:32;23.6;55.1
78516;SHT31;67815;51.990;5.688;2023-06-26T07:06:02;23.6;55.5
78516;SHT31;67815;51.990;5.688;2023-06-26T07:08:32;23.6;55.1
78516;SHT31;67815;51.990;5.688;2023-06-26T07:11:02;23.7;55.7
78516;SHT31;67815;51.990;5.688;2023-06-26T07:13:32;23.7;55.7
78516;SHT31;67815;51.990;5.688;2023-06-26T07:16:02;23.7;55.3
78516;SHT31;67815;51.990;5.688;2023-06-26T07:18:32;23.7;55.5
78516;SHT31;67815;51.990;5.688;2023-06-26T07:21:02;23.8;55.8
78516;SHT31;67815;51.990;5.688;2023-06-26T07:23:32;23.8;55.7
78516;SHT31;67815;51.990;5.688;2023-06-26T07:26:02;23.8;55.8
78516;SHT31;67815;51.990;5.688;2023-06-26T07:28:32;23.8;55.7
78516;SHT31;67815;51.990;5.688;2023-06-26T07:31:01;23.8;56.0
78516;SHT31;67815;51.990;5.688;2023-06-26T07:33:31;23.8;55.9
78516;SHT31;67815;51.990;5.688;2023-06-26T07:36:01;23.8;56.5
78516;SHT31;67815;51.990;5.688;2023-06-26T07:38:31;23.8;56.3
78516;SHT31;67815;51.990;5.688;2023-06-26T07:41:01;23.8;55.8
78516;SHT31;67815;51.990;5.688;2023-06-26T07:43:30;23.8;55.8
78516;SHT31;67815;51.990;5.688;2023-06-26T07:46:00;23.8;56.1
78516;SHT31;67815;51.990;5.688;2023-06-26T07:48:30;23.9;56.2
78516;SHT31;67815;51.990;5.688;2023-06-26T07:50:59;23.9;57.7
78516;SHT31;67815;51.990;5.688;2023-06-26T07:53:29;23.9;57.0
78516;SHT31;67815;51.990;5.688;2023-06-26T07:55:58;23.9;56.5
78516;SHT31;67815;51.990;5.688;2023-06-26T07:58:28;23.9;55.7
78516;SHT31;67815;51.990;5.688;2023-06-26T08:00:57;24.0;56.5
78516;SHT31;67815;51.990;5.688;2023-06-26T08:03:27;24.0;56.2
78516;SHT31;67815;51.990;5.688;2023-06-26T08:05:56;24.0;56.0
78516;SHT31;67815;51.990;5.688;2023-06-26T08:08:27;24.0;55.2
78516;SHT31;67815;51.990;5.688;2023-06-26T08:10:56;24.0;55.9
78516;SHT31;67815;51.990;5.688;2023-06-26T08:13:28;24.0;55.5
78516;SHT31;67815;51.990;5.688;2023-06-26T08:15:58;24.0;55.4
78516;SHT31;67815;51.990;5.688;2023-06-26T08:18:28;24.0;56.7
78516;SHT31;67815;51.990;5.688;2023-06-26T08:20:57;24.0;56.1
78516;SHT31;67815;51.990;5.688;2023-06-26T08:23:27;24.0;55.7
78516;SHT31;67815;51.990;5.688;2023-06-26T08:25:57;24.1;55.9
78516;SHT31;67815;51.990;5.688;2023-06-26T08:28:27;24.1;56.0
78516;SHT31;67815;51.990;5.688;2023-06-26T08:30:57;24.1;56.2
78516;SHT31;67815;51.990;5.688;2023-06-26T08:33:29;24.1;56.3
78516;SHT31;67815;51.990;5.688;2023-06-26T08:35:58;24.1;55.5
78516;SHT31;67815;51.990;5.688;2023-06-26T08:38:28;24.1;53.9
78516;SHT31;67815;51.990;5.688;2023-06-26T08:40:57;24.1;55.4
78516;SHT31;67815;51.990;5.688;2023-06-26T08:43:27;24.1;53.6
78516;SHT31;67815;51.990;5.688;2023-06-26T08:45:57;24.1;53.7
78516;SHT31;67815;51.990;5.688;2023-06-26T08:48:32;24.1;53.9
78516;SHT31;67815;51.990;5.688;2023-06-26T08:51:09;24.1;53.9
78516;SHT31;67815;51.990;5.688;2023-06-26T08:53:50;24.1;53.7
78516;SHT31;67815;51.990;5.688;2023-06-26T08:56:22;24.1;52.4
78516;SHT31;67815;51.990;5.688;2023-06-26T08:58:56;24.1;51.6
78516;SHT31;67815;51.990;5.688;2023-06-26T09:01:26;24.1;52.8
78516;SHT31;67815;51.990;5.688;2023-06-26T09:03:57;24.1;52.0
78516;SHT31;67815;51.990;5.688;2023-06-26T09:06:27;24.1;51.6
78516;SHT31;67815;51.990;5.688;2023-06-26T09:08:57;24.1;51.9
78516;SHT31;67815;51.990;5.688;2023-06-26T09:11:26;24.1;51.7
78516;SHT31;67815;51.990;5.688;2023-06-26T09:13:57;24.1;51.3
78516;SHT31;67815;51.990;5.688;2023-06-26T09:16:27;24.1;49.8
78516;SHT31;67815;51.990;5.688;2023-06-26T09:18:58;24.1;48.1
78516;SHT31;67815;51.990;5.688;2023-06-26T09:21:28;24.1;47.5
78516;SHT31;67815;51.990;5.688;2023-06-26T09:23:58;24.1;47.7
78516;SHT31;67815;51.990;5.688;2023-06-26T09:26:28;24.1;49.3
78516;SHT31;67815;51.990;5.688;2023-06-26T09:28:58;24.1;49.6
78516;SHT31;67815;51.990;5.688;2023-06-26T09:31:31;24.2;49.3
78516;SHT31;67815;51.990;5.688;2023-06-26T09:34:04;24.2;49.0
78516;SHT31;67815;51.990;5.688;2023-06-26T09:36:34;24.2;49.1
78516;SHT31;67815;51.990;5.688;2023-06-26T09:39:05;24.2;49.7
78516;SHT31;67815;51.990;5.688;2023-06-26T09:41:38;24.2;51.0
78516;SHT31;67815;51.990;5.688;2023-06-26T09:44:10;24.2;50.0
78516;SHT31;67815;51.990;5.688;2023-06-26T09:46:45;24.2;47.9
78516;SHT31;67815;51.990;5.688;2023-06-26T09:49:15;24.2;48.7
78516;SHT31;67815;51.990;5.688;2023-06-26T09:51:45;24.2;48.4
78516;SHT31;67815;51.990;5.688;2023-06-26T09:54:16;24.2;47.9
78516;SHT31;67815;51.990;5.688;2023-06-26T09:56:47;24.3;49.5
78516;SHT31;67815;51.990;5.688;2023-06-26T09:59:17;24.4;49.5
78516;SHT31;67815;51.990;5.688;2023-06-26T10:01:47;24.5;47.3
78516;SHT31;67815;51.990;5.688;2023-06-26T10:04:16;24.6;46.6
78516;SHT31;67815;51.990;5.688;2023-06-26T10:06:50;24.6;47.0
78516;SHT31;67815;51.990;5.688;2023-06-26T10:09:22;24.7;47.4
78516;SHT31;67815;51.990;5.688;2023-06-26T10:11:56;24.7;47.0
78516;SHT31;67815;51.990;5.688;2023-06-26T10:14:33;24.7;47.4
78516;SHT31;67815;51.990;5.688;2023-06-26T10:17:07;24.7;47.5
78516;SHT31;67815;51.990;5.688;2023-06-26T10:19:41;24.7;49.0
78516;SHT31;67815;51.990;5.688;2023-06-26T10:22:16;24.7;46.5
78516;SHT31;67815;51.990;5.688;2023-06-26T10:24:48;24.7;43.2
78516;SHT31;67815;51.990;5.688;2023-06-26T10:27:20;24.7;43.5
78516;SHT31;67815;51.990;5.688;2023-06-26T10:29:54;24.7;42.4
78516;SHT31;67815;51.990;5.688;2023-06-26T10:32:26;24.7;43.5
78516;SHT31;67815;51.990;5.688;2023-06-26T10:34:57;24.7;44.4
78516;SHT31;67815;51.990;5.688;2023-06-26T10:37:49;24.8;44.6
78516;SHT31;67815;51.990;5.688;2023-06-26T10:40:26;24.8;44.8
78516;SHT31;67815;51.990;5.688;2023-06-26T10:43:08;24.8;44.2
78516;SHT31;67815;51.990;5.688;2023-06-26T10:45:46;24.8;44.8
78516;SHT31;67815;51.990;5.688;2023-06-26T10:48:20;24.9;45.8
78516;SHT31;67815;51.990;5.688;2023-06-26T10:50:50;24.9;45.7
78516;SHT31;67815;51.990;5.688;2023-06-26T10:53:25;24.9;42.9
78516;SHT31;67815;51.990;5.688;2023-06-26T10:56:03;24.9;44.2
78516;SHT31;67815;51.990;5.688;2023-06-26T10:58:34;24.9;42.9
78516;SHT31;67815;51.990;5.688;2023-06-26T11:01:24;24.9;42.5
78516;SHT31;67815;51.990;5.688;2023-06-26T11:04:05;24.9;43.2
78516;SHT31;67815;51.990;5.688;2023-06-26T11:06:37;25.0;43.4
78516;SHT31;67815;51.990;5.688;2023-06-26T11:09:10;25.0;42.9
78516;SHT31;67815;51.990;5.688;2023-06-26T11:11:59;25.0;43.7
78516;SHT31;67815;51.990;5.688;2023-06-26T11:14:35;25.0;43.5
78516;SHT31;67815;51.990;5.688;2023-06-26T11:17:06;25.0;42.0
78516;SHT31;67815;51.990;5.688;2023-06-26T11:19:35;25.0;42.1
78516;SHT31;67815;51.990;5.688;2023-06-26T11:22:05;25.0;40.3
78516;SHT31;67815;51.990;5.688;2023-06-26T11:24:36;25.0;40.5
78516;SHT31;67815;51.990;5.688;2023-06-26T11:27:06;25.0;40.5
78516;SHT31;67815;51.990;5.688;2023-06-26T11:29:38;25.0;40.4
78516;SHT31;67815;51.990;5.688;2023-06-26T11:32:13;24.9;41.7
78516;SHT31;67815;51.990;5.688;2023-06-26T11:34:42;24.9;42.3
78516;SHT31;67815;51.990;5.688;2023-06-26T11:37:12;24.9;41.4
78516;SHT31;67815;51.990;5.688;2023-06-26T11:39:45;24.9;44.2
78516;SHT31;67815;51.990;5.688;2023-06-26T11:42:15;25.0;42.8
78516;SHT31;67815;51.990;5.688;2023-06-26T11:44:45;25.0;43.3
78516;SHT31;67815;51.990;5.688;2023-06-26T11:47:17;25.0;42.1
78516;SHT31;67815;51.990;5.688;2023-06-26T11:49:48;25.0;41.9
78516;SHT31;67815;51.990;5.688;2023-06-26T11:52:18;25.0;42.7
78516;SHT31;67815;51.990;5.688;2023-06-26T11:54:49;25.0;42.5
78516;SHT31;67815;51.990;5.688;2023-06-26T11:57:18;25.1;39.5
78516;SHT31;67815;51.990;5.688;2023-06-26T11:59:50;25.1;40.3
78516;SHT31;67815;51.990;5.688;2023-06-26T12:02:21;25.1;40.3
78516;SHT31;67815;51.990;5.688;2023-06-26T12:04:51;25.1;40.3
78516;SHT31;67815;51.990;5.688;2023-06-26T12:07:21;25.1;40.7
78516;SHT31;67815;51.990;5.688;2023-06-26T12:09:52;25.1;40.9
78516;SHT31;67815;51.990;5.688;2023-06-26T12:12:26;25.2;42.3
78516;SHT31;67815;51.990;5.688;2023-06-26T12:14:56;25.2;40.2
78516;SHT31;67815;51.990;5.688;2023-06-26T12:17:27;25.3;41.0
78516;SHT31;67815;51.990;5.688;2023-06-26T12:19:57;25.3;39.4
78516;SHT31;67815;51.990;5.688;2023-06-26T12:22:36;25.3;39.5
78516;SHT31;67815;51.990;5.688;2023-06-26T12:25:09;25.3;39.1
78516;SHT31;67815;51.990;5.688;2023-06-26T12:27:40;25.4;38.8
78516;SHT31;67815;51.990;5.688;2023-06-26T12:30:12;25.3;40.2
78516;SHT31;67815;51.990;5.688;2023-06-26T12:32:44;25.3;39.7
78516;SHT31;67815;51.990;5.688;2023-06-26T12:35:15;25.3;41.0
78516;SHT31;67815;51.990;5.688;2023-06-26T12:37:46;25.3;43.2
78516;SHT31;67815;51.990;5.688;2023-06-26T12:40:19;25.4;40.4
78516;SHT31;67815;51.990;5.688;2023-06-26T12:42:53;25.4;40.3
78516;SHT31;67815;51.990;5.688;2023-06-26T12:45:26;25.4;39.7
78516;SHT31;67815;51.990;5.688;2023-06-26T12:48:09;25.5;37.3
78516;SHT31;67815;51.990;5.688;2023-06-26T12:50:45;25.5;38.0
78516;SHT31;67815;51.990;5.688;2023-06-26T12:53:15;25.5;38.7
78516;SHT31;67815;51.990;5.688;2023-06-26T12:55:45;25.5;39.2
78516;SHT31;67815;51.990;5.688;2023-06-26T12:58:14;25.5;39.3
78516;SHT31;67815;51.990;5.688;2023-06-26T13:00:45;25.5;40.0
78516;SHT31;67815;51.990;5.688;2023-06-26T13:03:14;25.6;39.5
78516;SHT31;67815;51.990;5.688;2023-06-26T13:05:44;25.6;38.8
78516;SHT31;67815;51.990;5.688;2023-06-26T13:08:16;25.6;39.8
78516;SHT31;67815;51.990;5.688;2023-06-26T13:10:46;25.6;38.4
78516;SHT31;67815;51.990;5.688;2023-06-26T13:13:16;25.6;37.7
78516;SHT31;67815;51.990;5.688;2023-06-26T13:15:46;25.6;38.5
78516;SHT31;67815;51.990;5.688;2023-06-26T13:18:16;25.5;37.2
78516;SHT31;67815;51.990;5.688;2023-06-26T13:20:45;25.5;37.5
78516;SHT31;67815;51.990;5.688;2023-06-26T13:23:16;25.5;36.8
78516;SHT31;67815;51.990;5.688;2023-06-26T13:25:46;25.5;37.8
78516;SHT31;67815;51.990;5.688;2023-06-26T13:28:16;25.4;38.8
78516;SHT31;67815;51.990;5.688;2023-06-26T13:30:46;25.4;39.0
78516;SHT31;67815;51.990;5.688;2023-06-26T13:33:16;25.4;37.5
78516;SHT31;67815;51.990;5.688;2023-06-26T13:35:46;25.4;37.3
78516;SHT31;67815;51.990;5.688;2023-06-26T13:38:16;25.4;37.8
78516;SHT31;67815;51.990;5.688;2023-06-26T13:40:46;25.4;40.1
78516;SHT31;67815;51.990;5.688;2023-06-26T13:43:16;25.4;39.5
78516;SHT31;67815;51.990;5.688;2023-06-26T13:45:45;25.4;38.1
78516;SHT31;67815;51.990;5.688;2023-06-26T13:48:15;25.4;38.5
78516;SHT31;67815;51.990;5.688;2023-06-26T13:50:46;25.3;38.7
78516;SHT31;67815;51.990;5.688;2023-06-26T13:53:16;25.3;38.7
78516;SHT31;67815;51.990;5.688;2023-06-26T13:55:45;25.2;41.3
78516;SHT31;67815;51.990;5.688;2023-06-26T13:58:16;25.2;39.7
78516;SHT31;67815;51.990;5.688;2023-06-26T14:00:47;25.2;40.0
78516;SHT31;67815;51.990;5.688;2023-06-26T14:03:16;25.3;40.8
78516;SHT31;67815;51.990;5.688;2023-06-26T14:05:47;25.3;39.5
78516;SHT31;67815;51.990;5.688;2023-06-26T14:08:18;25.4;39.0
78516;SHT31;67815;51.990;5.688;2023-06-26T14:10:47;25.4;39.6
78516;SHT31;67815;51.990;5.688;2023-06-26T14:13:17;25.5;39.6
78516;SHT31;67815;51.990;5.688;2023-06-26T14:15:46;25.5;37.7
78516;SHT31;67815;51.990;5.688;2023-06-26T14:18:18;25.6;37.8
78516;SHT31;67815;51.990;5.688;2023-06-26T14:20:48;25.6;38.2
78516;SHT31;67815;51.990;5.688;2023-06-26T14:23:18;25.6;38.1
78516;SHT31;67815;51.990;5.688;2023-06-26T14:25:48;25.7;37.3
78516;SHT31;67815;51.990;5.688;2023-06-26T14:28:19;25.7;37.7
78516;SHT31;67815;51.990;5.688;2023-06-26T14:30:51;25.7;37.5
78516;SHT31;67815;51.990;5.688;2023-06-26T14:33:20;25.7;38.9
78516;SHT31;67815;51.990;5.688;2023-06-26T14:35:50;25.7;38.1
78516;SHT31;67815;51.990;5.688;2023-06-26T14:38:20;25.7;38.3
78516;SHT31;67815;51.990;5.688;2023-06-26T14:40:49;25.7;38.5
78516;SHT31;67815;51.990;5.688;2023-06-26T14:43:19;25.7;37.4
78516;SHT31;67815;51.990;5.688;2023-06-26T14:45:49;25.6;39.4
78516;SHT31;67815;51.990;5.688;2023-06-26T14:48:19;25.6;38.5
78516;SHT31;67815;51.990;5.688;2023-06-26T14:50:48;25.6;38.0
78516;SHT31;67815;51.990;5.688;2023-06-26T14:53:18;25.6;38.6
78516;SHT31;67815;51.990;5.688;2023-06-26T14:55:49;25.6;38.0
78516;SHT31;67815;51.990;5.688;2023-06-26T14:58:19;25.6;39.3
78516;SHT31;67815;51.990;5.688;2023-06-26T15:00:48;25.6;37.9
78516;SHT31;67815;51.990;5.688;2023-06-26T15:03:18;25.6;38.2
78516;SHT31;67815;51.990;5.688;2023-06-26T15:05:47;25.6;39.1
78516;SHT31;67815;51.990;5.688;2023-06-26T15:08:17;25.6;38.4
78516;SHT31;67815;51.990;5.688;2023-06-26T15:10:46;25.6;37.6
78516;SHT31;67815;51.990;5.688;2023-06-26T15:13:17;25.6;37.2
78516;SHT31;67815;51.990;5.688;2023-06-26T15:15:46;25.6;37.2
78516;SHT31;67815;51.990;5.688;2023-06-26T15:18:16;25.6;37.8
78516;SHT31;67815;51.990;5.688;2023-06-26T15:20:45;25.6;37.7
78516;SHT31;67815;51.990;5.688;2023-06-26T15:23:15;25.6;38.4
78516;SHT31;67815;51.990;5.688;2023-06-26T15:25:45;25.6;37.7
78516;SHT31;67815;51.990;5.688;2023-06-26T15:28:14;25.7;38.4
78516;SHT31;67815;51.990;5.688;2023-06-26T15:30:45;25.7;36.9
78516;SHT31;67815;51.990;5.688;2023-06-26T15:33:18;25.6;37.5
78516;SHT31;67815;51.990;5.688;2023-06-26T15:35:47;25.6;37.0
78516;SHT31;67815;51.990;5.688;2023-06-26T15:38:17;25.6;36.1
78516;SHT31;67815;51.990;5.688;2023-06-26T15:40:47;25.6;37.3
78516;SHT31;67815;51.990;5.688;2023-06-26T15:43:18;25.6;38.3
78516;SHT31;67815;51.990;5.688;2023-06-26T15:45:48;25.6;38.8
78516;SHT31;67815;51.990;5.688;2023-06-26T15:48:18;25.6;37.9
78516;SHT31;67815;51.990;5.688;2023-06-26T15:50:48;25.7;37.8
78516;SHT31;67815;51.990;5.688;2023-06-26T15:53:17;25.7;37.5
78516;SHT31;67815;51.990;5.688;2023-06-26T15:55:47;25.7;37.9
78516;SHT31;67815;51.990;5.688;2023-06-26T15:58:17;25.7;37.5
78516;SHT31;67815;51.990;5.688;2023-06-26T16:00:46;25.7;36.9
78516;SHT31;67815;51.990;5.688;2023-06-26T16:03:16;25.6;37.5
78516;SHT31;67815;51.990;5.688;2023-06-26T16:05:47;25.6;37.6
78516;SHT31;67815;51.990;5.688;2023-06-26T16:08:17;25.5;38.7
78516;SHT31;67815;51.990;5.688;2023-06-26T16:10:47;25.4;38.7
78516;SHT31;67815;51.990;5.688;2023-06-26T16:13:16;25.4;38.8
78516;SHT31;67815;51.990;5.688;2023-06-26T16:15:48;25.3;39.2
78516;SHT31;67815;51.990;5.688;2023-06-26T16:18:17;25.3;38.1
78516;SHT31;67815;51.990;5.688;2023-06-26T16:20:50;25.2;39.3
78516;SHT31;67815;51.990;5.688;2023-06-26T16:23:20;25.2;39.0
78516;SHT31;67815;51.990;5.688;2023-06-26T16:25:50;25.2;39.3